Time;durP1;ratioP1;P1;durP2;ratioP2;P2;SDS_P1;SDS_P2;PMS_P1;PMS_P2;Temp;Humidity;BMP_temperature;BMP_pressure;BME280_temperature;BME280_humidity;BME280_pressure;Samples;Min_cycle;Max_cycle;Signal;HPM_P1;HPM_P2
2021/11/05 00:00:19;;;;;;;3.65;2.33;;;5.10;99.10;;;;;;5082231;28;20084;-59
2021/11/05 00:02:48;;;;;;;4.57;2.47;;;5.10;99.00;;;;;;5083596;28;20970;-59
2021/11/05 00:05:18;;;;;;;3.67;2.60;;;5.00;99.90;;;;;;5083882;28;20059;-59
2021/11/05 00:07:44;;;;;;;4.25;2.72;;;5.00;99.90;;;;;;5083552;28;20413;-59
2021/11/05 00:10:11;;;;;;;3.95;2.30;;;4.90;99.90;;;;;;5084527;28;20128;-59
2021/11/05 00:12:38;;;;;;;3.80;2.40;;;4.80;99.90;;;;;;5083634;28;20408;-59
2021/11/05 00:15:05;;;;;;;5.13;2.72;;;4.80;99.90;;;;;;5083174;28;20076;-59
2021/11/05 00:17:32;;;;;;;4.88;2.70;;;4.70;99.90;;;;;;5083016;28;20086;-59
2021/11/05 00:19:59;;;;;;;4.18;2.67;;;4.70;99.90;;;;;;5083797;28;20138;-59
2021/11/05 00:22:25;;;;;;;4.82;2.97;;;4.60;99.90;;;;;;5081176;28;20094;-59
2021/11/05 00:24:52;;;;;;;5.28;3.72;;;4.60;99.90;;;;;;5083583;28;20079;-59
2021/11/05 00:27:19;;;;;;;4.55;3.35;;;4.50;99.90;;;;;;5072863;28;20079;-59
2021/11/05 00:29:46;;;;;;;4.55;2.88;;;4.40;99.90;;;;;;5082550;28;20083;-59
2021/11/05 00:32:12;;;;;;;5.47;3.75;;;4.40;99.90;;;;;;5078863;28;20526;-59
2021/11/05 00:34:39;;;;;;;5.93;3.55;;;4.30;99.90;;;;;;5080346;28;20131;-59
2021/11/05 00:37:08;;;;;;;5.55;3.97;;;4.20;99.90;;;;;;5081168;28;20083;-59
2021/11/05 00:39:35;;;;;;;4.55;3.03;;;4.20;99.90;;;;;;5082820;28;20127;-59
2021/11/05 00:42:02;;;;;;;5.40;3.90;;;4.10;99.90;;;;;;5082365;28;20155;-59
2021/11/05 00:44:29;;;;;;;4.32;3.17;;;4.10;99.90;;;;;;5081660;28;20127;-59
2021/11/05 00:46:55;;;;;;;6.00;3.45;;;4.00;99.90;;;;;;5083052;28;20134;-59
2021/11/05 00:49:22;;;;;;;6.68;3.72;;;4.00;99.90;;;;;;5081700;28;20546;-59
2021/11/05 00:51:49;;;;;;;5.22;3.75;;;3.90;99.90;;;;;;5081107;28;20110;-59
2021/11/05 00:54:18;;;;;;;5.47;3.45;;;3.80;99.90;;;;;;5081374;28;20048;-59
2021/11/05 00:56:47;;;;;;;6.55;4.72;;;3.80;99.90;;;;;;5082702;28;20079;-59
2021/11/05 00:59:14;;;;;;;5.68;4.13;;;3.70;99.90;;;;;;5081186;28;20523;-58
2021/11/05 01:01:41;;;;;;;4.40;3.22;;;3.70;99.90;;;;;;5082915;28;20044;-59
2021/11/05 01:04:08;;;;;;;6.00;3.67;;;3.70;99.90;;;;;;5081243;28;20117;-59
2021/11/05 01:06:35;;;;;;;7.55;4.70;;;3.70;99.90;;;;;;5082833;28;20126;-59
2021/11/05 01:09:03;;;;;;;6.70;5.10;;;3.70;99.90;;;;;;5082211;28;20079;-59
2021/11/05 01:11:30;;;;;;;5.57;4.20;;;3.70;99.90;;;;;;5083208;28;20640;-59
2021/11/05 01:13:57;;;;;;;9.10;5.40;;;3.70;99.90;;;;;;5080914;28;20494;-59
2021/11/05 01:16:24;;;;;;;6.97;5.35;;;3.60;99.90;;;;;;5081722;28;20492;-59
2021/11/05 01:18:51;;;;;;;8.18;5.35;;;3.60;99.90;;;;;;5081790;28;20127;-59
2021/11/05 01:21:17;;;;;;;8.85;5.60;;;3.60;99.90;;;;;;5081240;28;20164;-59
2021/11/05 01:23:44;;;;;;;8.60;5.95;;;3.70;99.90;;;;;;5081916;28;20088;-59
2021/11/05 01:26:13;;;;;;;9.85;5.78;;;3.60;99.90;;;;;;5082323;28;20136;-59
2021/11/05 01:28:40;;;;;;;8.00;5.65;;;3.60;99.90;;;;;;5081995;28;20072;-59
2021/11/05 01:31:06;;;;;;;8.10;5.80;;;3.60;99.90;;;;;;5080044;28;20079;-58
2021/11/05 01:33:34;;;;;;;7.72;5.95;;;3.60;99.90;;;;;;5079660;28;20044;-58
2021/11/05 01:36:00;;;;;;;7.53;5.80;;;3.60;99.90;;;;;;5081731;28;20047;-58
2021/11/05 01:38:27;;;;;;;10.52;7.50;;;3.60;99.90;;;;;;5080670;28;20051;-58
2021/11/05 01:40:54;;;;;;;8.82;6.20;;;3.50;99.90;;;;;;5081530;28;20083;-58
2021/11/05 01:43:21;;;;;;;9.63;6.43;;;3.50;99.90;;;;;;5081323;28;20090;-58
2021/11/05 01:45:48;;;;;;;8.95;6.68;;;3.50;99.90;;;;;;5080831;28;20453;-58
2021/11/05 01:48:15;;;;;;;10.10;7.15;;;3.50;99.90;;;;;;5081513;28;20573;-58
2021/11/05 01:50:42;;;;;;;11.80;7.70;;;3.50;99.90;;;;;;5081309;28;20130;-58
2021/11/05 01:53:09;;;;;;;10.82;7.53;;;3.50;99.90;;;;;;5080352;28;20754;-58
2021/11/05 01:55:36;;;;;;;12.13;7.68;;;3.40;99.90;;;;;;5082025;28;20550;-58
2021/11/05 01:58:03;;;;;;;11.73;7.72;;;3.50;99.90;;;;;;5081120;28;20083;-57
2021/11/05 02:00:30;;;;;;;9.85;7.30;;;3.40;99.90;;;;;;5079720;28;20101;-57
2021/11/05 02:02:57;;;;;;;11.10;7.63;;;3.40;99.90;;;;;;5086768;28;20624;-58
2021/11/05 02:05:24;;;;;;;11.07;7.95;;;3.40;99.90;;;;;;5088550;28;20444;-58
2021/11/05 02:07:52;;;;;;;12.40;7.78;;;3.40;99.90;;;;;;5088060;28;20051;-58
2021/11/05 02:10:20;;;;;;;10.73;8.05;;;3.30;99.90;;;;;;5088372;28;20080;-58
2021/11/05 02:12:47;;;;;;;11.07;7.80;;;3.20;99.90;;;;;;5087655;28;20555;-58
2021/11/05 02:15:17;;;;;;;9.80;8.05;;;3.10;99.90;;;;;;5087920;28;20846;-58
2021/11/05 02:17:44;;;;;;;10.45;7.30;;;3.10;99.90;;;;;;5088274;28;20480;-58
2021/11/05 02:20:12;;;;;;;10.60;8.15;;;3.10;99.90;;;;;;5088211;28;20040;-58
2021/11/05 02:22:39;;;;;;;9.73;6.88;;;2.90;99.90;;;;;;5086324;28;20113;-57
2021/11/05 02:25:06;;;;;;;11.63;7.63;;;2.90;99.90;;;;;;5088333;28;20158;-57
2021/11/05 02:27:33;;;;;;;10.50;7.05;;;2.80;99.90;;;;;;5087432;28;20456;-58
2021/11/05 02:30:01;;;;;;;10.60;6.97;;;2.80;99.90;;;;;;5086494;28;20131;-58
2021/11/05 02:32:28;;;;;;;9.32;7.10;;;2.90;99.90;;;;;;5089276;28;20091;-58
2021/11/05 02:34:54;;;;;;;10.15;6.80;;;2.90;99.90;;;;;;5088885;28;20442;-58
2021/11/05 02:37:25;;;;;;;11.52;7.95;;;2.90;99.90;;;;;;5088129;28;20148;-58
2021/11/05 02:39:52;;;;;;;9.35;6.78;;;2.90;99.90;;;;;;5088859;28;20112;-59
2021/11/05 02:42:19;;;;;;;11.35;8.05;;;2.90;99.90;;;;;;5089698;28;20051;-58
2021/11/05 02:44:46;;;;;;;9.77;7.15;;;2.80;99.90;;;;;;5089282;28;20126;-58
2021/11/05 02:47:15;;;;;;;10.50;7.45;;;2.80;99.90;;;;;;5068074;28;20088;-59
2021/11/05 02:49:42;;;;;;;8.93;6.90;;;2.80;99.90;;;;;;5077785;28;20115;-58
2021/11/05 02:52:08;;;;;;;10.38;7.15;;;2.80;99.90;;;;;;5089677;28;20101;-58
2021/11/05 02:54:35;;;;;;;8.40;5.85;;;2.80;99.90;;;;;;5089506;28;20494;-57
2021/11/05 02:57:02;;;;;;;9.43;6.75;;;2.80;99.90;;;;;;5090186;28;20938;-58
2021/11/05 02:59:29;;;;;;;8.35;6.07;;;2.80;99.90;;;;;;5088665;28;20127;-58
2021/11/05 03:01:56;;;;;;;7.55;6.30;;;2.80;99.90;;;;;;5088475;28;20083;-58
2021/11/05 03:04:23;;;;;;;7.43;5.55;;;2.80;99.90;;;;;;5088631;28;20108;-58
2021/11/05 03:06:50;;;;;;;8.73;6.00;;;2.70;99.90;;;;;;5089728;28;20143;-58
2021/11/05 03:09:17;;;;;;;7.35;5.93;;;2.70;99.90;;;;;;5089048;28;20122;-59
2021/11/05 03:11:45;;;;;;;8.90;6.05;;;2.70;99.90;;;;;;5090295;28;20544;-59
2021/11/05 03:14:12;;;;;;;7.72;5.72;;;2.70;99.90;;;;;;5084075;28;20075;-61
2021/11/05 03:16:39;;;;;;;7.50;5.53;;;2.60;99.90;;;;;;5086623;28;20087;-58
2021/11/05 03:19:07;;;;;;;5.93;4.05;;;2.60;99.90;;;;;;5086013;28;20499;-58
2021/11/05 03:21:34;;;;;;;7.07;4.82;;;2.60;99.90;;;;;;5085372;28;20104;-59
2021/11/05 03:24:01;;;;;;;6.47;4.38;;;2.60;99.90;;;;;;5085959;28;20418;-58
2021/11/05 03:26:28;;;;;;;6.97;4.82;;;2.60;99.90;;;;;;5086883;28;20143;-59
2021/11/05 03:28:54;;;;;;;6.63;4.70;;;2.60;99.90;;;;;;5085267;28;20087;-58
2021/11/05 03:31:21;;;;;;;6.13;4.45;;;2.60;99.90;;;;;;5082230;28;20079;-58
2021/11/05 03:33:48;;;;;;;6.32;4.88;;;2.70;99.90;;;;;;5085805;28;20080;-58
2021/11/05 03:36:15;;;;;;;6.70;4.38;;;2.70;99.90;;;;;;5601845;22;20090;-61
2021/11/05 03:41:26;;;;;;;7.13;4.68;;;2.70;99.90;;;;;;4987510;28;20062;-58
2021/11/05 03:43:55;;;;;;;6.03;4.10;;;2.70;99.90;;;;;;4989653;28;20666;-60
2021/11/05 03:46:21;;;;;;;5.20;3.70;;;2.70;99.90;;;;;;4986986;28;20137;-60
2021/11/05 03:48:48;;;;;;;4.97;3.40;;;2.60;99.90;;;;;;4989155;28;20077;-60
2021/11/05 03:51:15;;;;;;;7.38;4.40;;;2.60;99.90;;;;;;4989444;28;20133;-60
2021/11/05 03:53:42;;;;;;;5.43;3.53;;;2.60;99.90;;;;;;4989993;28;20129;-60
2021/11/05 03:56:08;;;;;;;5.53;3.58;;;2.60;99.90;;;;;;4988357;28;20078;-60
2021/11/05 03:58:36;;;;;;;5.35;3.85;;;2.60;99.90;;;;;;4989320;28;20133;-59
2021/11/05 04:01:04;;;;;;;7.57;4.47;;;2.60;99.90;;;;;;4988466;28;20424;-59
2021/11/05 04:03:31;;;;;;;5.70;3.78;;;2.60;99.90;;;;;;5004322;28;20145;-60
2021/11/05 04:05:57;;;;;;;6.13;3.55;;;2.60;99.90;;;;;;4989154;28;20058;-59
2021/11/05 04:08:24;;;;;;;4.68;3.40;;;2.60;99.90;;;;;;4989582;28;20125;-60
2021/11/05 04:10:52;;;;;;;5.03;3.55;;;2.60;99.90;;;;;;4989685;28;20074;-60
2021/11/05 04:13:19;;;;;;;4.88;3.08;;;2.50;99.90;;;;;;4988637;28;20042;-60
2021/11/05 04:15:46;;;;;;;4.07;3.08;;;2.40;99.90;;;;;;4988524;28;20046;-60
2021/11/05 04:18:12;;;;;;;4.13;3.05;;;2.40;99.90;;;;;;4988533;28;20074;-59
2021/11/05 04:20:40;;;;;;;4.93;3.03;;;2.40;99.90;;;;;;4989153;28;20078;-60
2021/11/05 04:23:08;;;;;;;4.93;3.65;;;2.40;99.90;;;;;;4989289;28;20050;-60
2021/11/05 04:25:35;;;;;;;4.10;2.90;;;2.30;99.90;;;;;;4988978;28;20108;-60
2021/11/05 04:28:06;;;;;;;3.65;2.83;;;2.30;99.90;;;;;;4989062;28;20137;-60
2021/11/05 04:30:36;;;;;;;3.45;2.53;;;2.40;99.90;;;;;;4987358;28;20093;-59
2021/11/05 04:33:04;;;;;;;4.45;2.67;;;2.40;99.90;;;;;;4988834;28;20081;-60
2021/11/05 04:35:30;;;;;;;4.28;2.92;;;2.40;99.90;;;;;;4987931;28;20054;-60
2021/11/05 04:37:57;;;;;;;3.58;2.47;;;2.40;99.90;;;;;;4988668;28;20390;-60
2021/11/05 04:40:24;;;;;;;4.60;2.90;;;2.50;99.90;;;;;;4988719;28;20437;-60
2021/11/05 04:42:51;;;;;;;4.10;2.83;;;2.50;99.90;;;;;;4987072;28;20436;-59
2021/11/05 04:45:18;;;;;;;3.40;2.30;;;2.40;99.90;;;;;;4988366;28;20090;-59
2021/11/05 04:47:45;;;;;;;3.22;1.88;;;2.40;99.90;;;;;;4986855;28;20532;-60
2021/11/05 04:50:12;;;;;;;3.63;2.00;;;2.30;99.90;;;;;;4988953;28;20050;-60
2021/11/05 04:52:39;;;;;;;2.72;2.17;;;2.40;99.90;;;;;;4988265;28;20078;-60
2021/11/05 04:55:06;;;;;;;3.45;2.35;;;2.30;99.90;;;;;;4988763;28;20354;-59
2021/11/05 04:57:33;;;;;;;3.40;2.60;;;2.30;99.90;;;;;;4988170;28;20173;-60
2021/11/05 05:00:00;;;;;;;3.40;2.50;;;2.30;99.90;;;;;;4986802;28;20129;-60
2021/11/05 05:02:27;;;;;;;3.17;2.53;;;2.30;99.90;;;;;;4988412;28;20128;-60
2021/11/05 05:04:54;;;;;;;3.40;2.20;;;2.30;99.90;;;;;;4988446;28;20140;-59
2021/11/05 05:07:20;;;;;;;6.50;2.78;;;2.30;99.90;;;;;;4988256;28;20054;-59
2021/11/05 05:09:47;;;;;;;3.67;2.53;;;2.30;99.90;;;;;;4988010;28;20081;-59
2021/11/05 05:12:14;;;;;;;3.03;2.28;;;2.30;99.90;;;;;;4988251;28;20089;-60
2021/11/05 05:14:41;;;;;;;3.03;2.08;;;2.40;99.90;;;;;;4986139;28;20464;-60
2021/11/05 05:17:08;;;;;;;3.67;2.38;;;2.30;99.90;;;;;;4988159;28;20046;-60
2021/11/05 05:19:37;;;;;;;3.80;2.30;;;2.40;99.90;;;;;;4987945;28;20133;-60
2021/11/05 05:22:04;;;;;;;3.90;2.42;;;2.30;99.90;;;;;;4987658;28;20074;-60
2021/11/05 05:24:31;;;;;;;2.97;1.92;;;2.30;99.90;;;;;;4988009;28;20466;-60
2021/11/05 05:26:58;;;;;;;4.00;2.78;;;2.30;99.90;;;;;;4988426;28;20089;-60
2021/11/05 05:29:24;;;;;;;4.55;2.50;;;2.30;99.90;;;;;;4985705;28;20073;-59
2021/11/05 05:31:51;;;;;;;4.68;2.53;;;2.20;99.90;;;;;;4987661;28;20074;-59
2021/11/05 05:34:18;;;;;;;3.55;2.03;;;2.20;99.90;;;;;;5003742;28;20085;-59
2021/11/05 05:36:45;;;;;;;4.53;2.47;;;2.10;99.90;;;;;;5003312;28;20475;-60
2021/11/05 05:39:11;;;;;;;4.55;2.40;;;2.10;99.90;;;;;;5003621;28;20089;-60
2021/11/05 05:41:38;;;;;;;4.00;2.35;;;2.00;99.90;;;;;;5020456;28;20133;-60
2021/11/05 05:44:05;;;;;;;3.45;2.97;;;2.00;99.90;;;;;;4988166;28;20133;-60
2021/11/05 05:46:35;;;;;;;3.83;2.78;;;2.00;99.90;;;;;;4988042;28;20481;-60
2021/11/05 05:49:01;;;;;;;3.58;2.25;;;2.00;99.90;;;;;;4983581;28;20133;-60
2021/11/05 05:51:32;;;;;;;5.15;2.90;;;2.00;99.90;;;;;;4984727;28;20546;-61
2021/11/05 05:53:59;;;;;;;4.78;2.55;;;2.00;99.90;;;;;;4984707;28;20058;-60
2021/11/05 05:56:26;;;;;;;4.32;2.70;;;2.00;99.90;;;;;;4985016;28;20087;-59
2021/11/05 05:58:52;;;;;;;4.07;2.65;;;2.00;99.90;;;;;;4983097;28;20070;-58
2021/11/05 06:01:19;;;;;;;4.38;2.92;;;2.00;99.90;;;;;;4983031;28;20050;-59
2021/11/05 06:03:46;;;;;;;3.58;2.58;;;2.00;99.90;;;;;;4977583;28;20050;-60
2021/11/05 06:06:13;;;;;;;4.22;3.17;;;2.00;99.90;;;;;;4981133;28;20069;-58
2021/11/05 06:08:40;;;;;;;6.13;2.70;;;1.90;99.90;;;;;;4980346;28;20054;-60
2021/11/05 06:11:09;;;;;;;4.30;2.53;;;1.90;99.90;;;;;;4981695;28;20077;-60
2021/11/05 06:13:35;;;;;;;4.05;2.80;;;2.00;99.90;;;;;;4981322;28;20074;-60
2021/11/05 06:16:03;;;;;;;4.53;2.80;;;2.00;99.90;;;;;;4979925;28;20134;-60
2021/11/05 06:18:29;;;;;;;4.35;2.78;;;2.00;99.90;;;;;;4982836;28;20461;-60
2021/11/05 06:20:56;;;;;;;5.00;2.92;;;1.90;99.90;;;;;;4983639;28;20129;-60
2021/11/05 06:23:23;;;;;;;4.65;2.92;;;1.90;99.90;;;;;;4981999;28;20073;-60
2021/11/05 06:25:50;;;;;;;4.03;2.63;;;1.90;99.90;;;;;;4981750;28;20137;-60
2021/11/05 06:28:17;;;;;;;4.45;3.00;;;1.90;99.90;;;;;;4978396;28;20410;-60
2021/11/05 06:30:43;;;;;;;4.32;2.53;;;2.00;99.90;;;;;;4977407;28;20074;-61
2021/11/05 06:33:10;;;;;;;4.25;2.60;;;2.00;99.90;;;;;;4974898;28;20152;-59
2021/11/05 06:35:37;;;;;;;3.67;2.63;;;2.10;99.90;;;;;;4978016;28;20576;-58
2021/11/05 06:38:04;;;;;;;3.97;2.80;;;2.10;99.90;;;;;;4978463;28;20058;-61
2021/11/05 06:40:31;;;;;;;4.68;2.70;;;2.10;99.90;;;;;;4978437;28;20212;-60
2021/11/05 06:42:57;;;;;;;4.53;2.45;;;2.10;99.90;;;;;;4978420;28;20054;-60
2021/11/05 06:45:28;;;;;;;3.67;2.40;;;2.10;99.90;;;;;;4976681;28;20128;-59
2021/11/05 06:47:55;;;;;;;5.03;3.28;;;2.10;99.90;;;;;;4978397;28;20089;-60
2021/11/05 06:50:21;;;;;;;5.65;3.30;;;2.00;99.90;;;;;;4978847;28;20106;-59
2021/11/05 06:52:48;;;;;;;4.53;3.05;;;2.00;99.90;;;;;;4982795;28;20604;-59
2021/11/05 06:55:15;;;;;;;3.95;2.58;;;2.00;99.90;;;;;;4981493;28;20136;-60
2021/11/05 06:57:42;;;;;;;4.38;2.97;;;2.00;99.90;;;;;;4981768;28;20161;-60
2021/11/05 07:00:10;;;;;;;4.13;2.83;;;2.00;99.90;;;;;;4982107;28;20684;-60
2021/11/05 07:02:41;;;;;;;4.57;2.80;;;2.00;99.90;;;;;;4982190;28;20133;-59
2021/11/05 07:05:11;;;;;;;5.10;3.28;;;2.00;99.90;;;;;;4966489;28;20280;-58
2021/11/05 07:07:38;;;;;;;3.60;2.40;;;1.90;99.90;;;;;;4982707;28;20144;-58
2021/11/05 07:10:06;;;;;;;4.88;3.08;;;1.80;99.90;;;;;;4982136;28;20236;-57
2021/11/05 07:12:32;;;;;;;4.70;3.28;;;1.80;99.90;;;;;;4964564;28;20462;-57
2021/11/05 07:14:59;;;;;;;4.20;2.78;;;1.90;99.90;;;;;;4980840;28;20046;-59
2021/11/05 07:17:26;;;;;;;4.50;3.15;;;1.80;99.90;;;;;;4982074;28;20484;-60
2021/11/05 07:19:52;;;;;;;5.28;3.00;;;1.80;99.90;;;;;;4981698;28;20486;-59
2021/11/05 07:22:19;;;;;;;5.07;3.15;;;1.90;99.90;;;;;;4981959;28;20082;-59
2021/11/05 07:24:46;;;;;;;4.50;2.92;;;1.90;99.90;;;;;;4982103;28;20133;-58
2021/11/05 07:27:13;;;;;;;4.45;3.05;;;1.90;99.90;;;;;;4982189;28;20812;-59
2021/11/05 07:29:42;;;;;;;3.78;2.85;;;2.00;99.90;;;;;;4979886;28;20134;-57
2021/11/05 07:32:08;;;;;;;5.78;3.35;;;2.00;99.90;;;;;;4981460;28;20557;-56
2021/11/05 07:34:36;;;;;;;3.97;3.00;;;2.00;99.90;;;;;;4980011;28;20091;-59
2021/11/05 07:37:07;;;;;;;5.78;3.42;;;2.00;99.90;;;;;;4981970;28;20078;-57
2021/11/05 07:39:33;;;;;;;4.28;2.80;;;2.10;99.90;;;;;;4981489;28;20176;-57
2021/11/05 07:42:00;;;;;;;4.25;2.90;;;2.10;99.90;;;;;;4981957;28;20161;-58
2021/11/05 07:44:27;;;;;;;6.35;3.55;;;2.10;99.90;;;;;;4978784;28;20541;-58
2021/11/05 07:46:54;;;;;;;4.47;3.10;;;2.10;99.90;;;;;;4981608;28;20371;-59
2021/11/05 07:49:22;;;;;;;6.10;3.35;;;2.20;99.90;;;;;;4980563;28;20069;-59
2021/11/05 07:51:49;;;;;;;5.80;4.15;;;2.20;99.90;;;;;;4981010;28;20144;-59
2021/11/05 07:54:15;;;;;;;4.90;3.15;;;2.20;99.90;;;;;;4981547;28;20090;-59
2021/11/05 07:56:42;;;;;;;5.20;3.22;;;2.30;99.90;;;;;;4980729;28;20133;-58
2021/11/05 07:59:09;;;;;;;4.50;3.05;;;2.40;99.90;;;;;;4979424;28;20050;-58
2021/11/05 08:01:36;;;;;;;5.50;3.20;;;2.40;99.90;;;;;;4980360;28;20117;-59
2021/11/05 08:04:03;;;;;;;5.55;3.20;;;2.40;99.90;;;;;;4980746;28;20129;-59
2021/11/05 08:06:29;;;;;;;5.07;3.63;;;2.50;99.90;;;;;;4980761;28;20070;-60
2021/11/05 08:08:59;;;;;;;4.70;3.13;;;2.60;99.90;;;;;;4980197;28;21177;-57
2021/11/05 08:11:29;;;;;;;4.45;3.17;;;2.70;99.90;;;;;;4981146;28;20149;-59
2021/11/05 08:13:56;;;;;;;5.40;3.42;;;2.70;99.90;;;;;;4979897;28;20078;-59
2021/11/05 08:16:23;;;;;;;5.35;3.45;;;2.80;99.90;;;;;;4979137;28;20418;-58
2021/11/05 08:18:52;;;;;;;6.22;3.72;;;2.80;99.90;;;;;;4981616;28;20073;-59
2021/11/05 08:21:19;;;;;;;6.03;3.75;;;2.90;99.90;;;;;;4981505;28;20049;-59
2021/11/05 08:23:46;;;;;;;7.72;4.72;;;3.00;99.90;;;;;;4980537;28;20320;-58
2021/11/05 08:26:14;;;;;;;7.07;4.20;;;3.00;99.90;;;;;;4980262;28;20322;-59
2021/11/05 08:28:41;;;;;;;7.85;4.00;;;3.10;99.90;;;;;;4978517;28;20050;-59
2021/11/05 08:31:11;;;;;;;6.18;4.18;;;3.10;99.90;;;;;;4981177;28;20125;-60
2021/11/05 08:33:39;;;;;;;6.68;4.25;;;3.20;99.90;;;;;;4981112;28;20054;-60
2021/11/05 08:36:07;;;;;;;6.55;4.03;;;3.30;99.90;;;;;;4979691;28;20050;-59
2021/11/05 08:38:33;;;;;;;5.60;3.97;;;3.30;99.90;;;;;;4980809;28;20161;-59
2021/11/05 08:41:00;;;;;;;6.47;4.15;;;3.40;99.90;;;;;;4978994;28;20133;-60
2021/11/05 08:43:31;;;;;;;7.70;5.43;;;3.50;99.90;;;;;;4978743;28;20481;-58
2021/11/05 08:46:01;;;;;;;5.00;3.38;;;3.50;99.90;;;;;;4978825;28;20413;-59
2021/11/05 08:48:29;;;;;;;6.50;4.15;;;3.60;99.90;;;;;;4979018;28;20556;-60
2021/11/05 08:51:00;;;;;;;6.65;5.10;;;3.70;99.90;;;;;;4976798;28;20156;-59
2021/11/05 08:53:27;;;;;;;8.75;6.00;;;3.70;99.90;;;;;;4992652;28;20148;-58
2021/11/05 08:55:53;;;;;;;9.82;6.70;;;3.80;99.90;;;;;;4978875;28;20516;-59
2021/11/05 08:58:20;;;;;;;9.10;7.07;;;3.90;99.90;;;;;;4978777;28;20695;-59
2021/11/05 09:00:47;;;;;;;8.63;6.05;;;3.90;99.90;;;;;;4978584;28;20553;-59
2021/11/05 09:03:14;;;;;;;6.60;4.68;;;3.90;99.90;;;;;;4978585;28;20533;-59
2021/11/05 09:05:41;;;;;;;8.00;5.82;;;4.00;99.90;;;;;;4978385;28;20237;-59
2021/11/05 09:08:08;;;;;;;7.63;5.40;;;4.00;99.90;;;;;;4979613;28;20161;-60
2021/11/05 09:10:35;;;;;;;8.60;5.45;;;4.10;99.90;;;;;;4979574;28;20293;-60
2021/11/05 09:13:04;;;;;;;8.75;4.85;;;4.10;99.90;;;;;;4978694;28;20137;-60
2021/11/05 09:15:31;;;;;;;7.47;4.53;;;4.10;99.90;;;;;;4979030;28;20108;-60
2021/11/05 09:17:58;;;;;;;7.32;5.05;;;4.20;99.90;;;;;;4978249;28;20050;-59
2021/11/05 09:20:25;;;;;;;8.35;4.97;;;4.20;99.90;;;;;;4980141;28;20140;-59
2021/11/05 09:22:52;;;;;;;8.23;5.32;;;4.20;99.90;;;;;;4978960;28;20560;-60
2021/11/05 09:25:19;;;;;;;6.85;5.22;;;4.30;99.90;;;;;;4978599;28;20133;-59
2021/11/05 09:27:47;;;;;;;9.35;5.50;;;4.30;99.90;;;;;;4976878;28;20412;-59
2021/11/05 09:30:15;;;;;;;7.90;5.85;;;4.30;99.90;;;;;;4979607;28;20046;-58
2021/11/05 09:32:42;;;;;;;7.47;5.78;;;4.40;99.90;;;;;;4979584;28;20047;-56
2021/11/05 09:35:14;;;;;;;9.13;5.47;;;4.40;99.90;;;;;;4977166;28;20116;-60
2021/11/05 09:37:41;;;;;;;7.45;5.18;;;4.40;99.90;;;;;;4978309;28;20054;-60
2021/11/05 09:40:10;;;;;;;7.20;4.95;;;4.50;99.90;;;;;;4977136;28;20866;-60
2021/11/05 09:42:37;;;;;;;8.02;5.50;;;4.50;99.90;;;;;;4976742;28;20125;-58
2021/11/05 09:45:09;;;;;;;8.77;5.25;;;4.60;99.90;;;;;;4976658;28;20121;-58
2021/11/05 09:47:35;;;;;;;6.85;4.60;;;4.60;99.90;;;;;;4977348;28;20692;-60
2021/11/05 09:50:02;;;;;;;8.00;5.18;;;4.70;99.90;;;;;;4977514;28;20073;-59
2021/11/05 09:52:32;;;;;;;9.18;6.07;;;4.80;99.90;;;;;;4978590;28;20428;-58
2021/11/05 09:54:59;;;;;;;8.73;5.15;;;4.80;99.90;;;;;;4977726;28;20137;-60
2021/11/05 09:57:26;;;;;;;6.72;4.53;;;4.90;99.90;;;;;;4977137;28;20536;-58
2021/11/05 09:59:52;;;;;;;8.70;5.55;;;5.00;99.90;;;;;;4976467;28;20133;-60
2021/11/05 10:02:20;;;;;;;7.28;4.72;;;5.00;99.90;;;;;;4977236;28;20465;-59
2021/11/05 10:04:47;;;;;;;8.30;5.45;;;5.00;99.90;;;;;;4975811;28;20058;-60
2021/11/05 10:07:14;;;;;;;7.63;5.57;;;5.20;99.30;;;;;;4975892;28;20077;-59
2021/11/05 10:09:45;;;;;;;8.05;5.13;;;5.20;99.90;;;;;;4977184;28;20153;-59
2021/11/05 10:12:17;;;;;;;7.15;5.03;;;5.40;99.20;;;;;;4977977;28;20057;-57
2021/11/05 10:14:45;;;;;;;9.88;6.38;;;5.40;99.20;;;;;;4977129;28;20565;-60
2021/11/05 10:17:14;;;;;;;6.13;4.40;;;5.50;99.20;;;;;;4979853;28;20137;-59
2021/11/05 10:19:53;;;;;;;8.27;4.28;;;5.60;98.90;;;;;;4978403;28;20082;-58
2021/11/05 10:22:46;;;;;;;7.75;5.00;;;5.70;98.70;;;;;;4980470;28;20089;-57
2021/11/05 10:25:34;;;;;;;7.05;5.00;;;5.80;98.40;;;;;;4982377;28;20137;-59
2021/11/05 10:28:15;;;;;;;5.78;4.20;;;5.80;97.90;;;;;;4979923;28;20046;-59
2021/11/05 10:30:45;;;;;;;6.15;4.13;;;5.90;98.10;;;;;;4982397;28;20113;-59
2021/11/05 10:33:15;;;;;;;5.40;4.45;;;6.00;98.00;;;;;;4981706;28;20105;-58
2021/11/05 10:35:44;;;;;;;6.30;4.43;;;6.10;98.00;;;;;;4983186;28;20553;-58
2021/11/05 10:38:27;;;;;;;8.80;4.68;;;6.20;97.20;;;;;;4980855;28;20058;-59
2021/11/05 10:40:56;;;;;;;5.78;4.57;;;6.20;96.90;;;;;;4983343;28;20145;-59
2021/11/05 10:43:42;;;;;;;6.28;4.35;;;6.40;96.60;;;;;;4977890;28;20082;-59
2021/11/05 10:46:36;;;;;;;6.43;5.10;;;6.40;96.90;;;;;;4983393;28;20058;-59
2021/11/05 10:49:30;;;;;;;5.78;4.15;;;6.50;95.60;;;;;;4980628;28;20405;-60
2021/11/05 10:52:18;;;;;;;6.65;4.40;;;6.60;95.70;;;;;;4982069;28;20082;-60
2021/11/05 10:54:55;;;;;;;5.50;3.58;;;6.70;95.60;;;;;;4983219;28;20136;-60
2021/11/05 10:57:42;;;;;;;5.13;3.70;;;6.70;95.60;;;;;;4982129;28;20098;-58
2021/11/05 11:00:26;;;;;;;5.53;3.70;;;6.80;95.00;;;;;;4981067;28;20450;-59
2021/11/05 11:02:53;;;;;;;4.70;3.40;;;6.90;95.40;;;;;;4963724;28;20501;-59
2021/11/05 11:05:30;;;;;;;4.25;3.20;;;7.00;94.80;;;;;;4982443;28;20450;-60
2021/11/05 11:07:59;;;;;;;6.10;4.50;;;7.10;94.10;;;;;;4983069;28;20509;-60
2021/11/05 11:10:35;;;;;;;5.60;3.80;;;7.20;94.00;;;;;;4980787;28;20058;-59
2021/11/05 11:13:28;;;;;;;5.05;3.50;;;7.20;93.90;;;;;;4982779;28;20058;-59
2021/11/05 11:15:55;;;;;;;5.30;3.65;;;7.30;94.60;;;;;;4980445;28;20154;-59
2021/11/05 11:18:21;;;;;;;5.43;3.97;;;7.40;94.70;;;;;;4982649;28;20352;-59
2021/11/05 11:20:48;;;;;;;5.45;3.63;;;7.40;93.30;;;;;;4981914;28;20449;-59
2021/11/05 11:23:15;;;;;;;5.32;3.67;;;7.60;93.80;;;;;;4982575;28;20092;-58
2021/11/05 11:25:43;;;;;;;4.57;3.00;;;7.60;93.40;;;;;;4981607;28;20050;-59
2021/11/05 11:28:10;;;;;;;5.43;3.60;;;7.70;92.10;;;;;;4979637;28;20090;-60
2021/11/05 11:30:36;;;;;;;3.50;3.20;;;7.90;93.00;;;;;;4980966;28;20289;-60
2021/11/05 11:33:08;;;;;;;4.32;3.28;;;8.10;91.80;;;;;;4980877;28;20058;-60
2021/11/05 11:35:34;;;;;;;4.78;3.17;;;8.30;91.50;;;;;;4978831;28;20125;-60
2021/11/05 11:38:01;;;;;;;5.20;3.83;;;8.50;91.50;;;;;;4981464;28;20137;-59
2021/11/05 11:40:28;;;;;;;4.05;3.20;;;8.70;91.20;;;;;;4982034;28;20175;-58
2021/11/05 11:42:55;;;;;;;5.15;3.83;;;8.80;90.70;;;;;;4981041;28;20133;-58
2021/11/05 11:45:22;;;;;;;5.43;3.78;;;8.80;88.60;;;;;;4979498;28;20490;-58
2021/11/05 11:47:52;;;;;;;6.22;4.28;;;9.00;90.10;;;;;;4981614;28;20165;-59
2021/11/05 11:50:29;;;;;;;4.55;3.35;;;9.10;88.10;;;;;;4981211;28;20130;-59
2021/11/05 11:53:03;;;;;;;4.70;3.38;;;9.30;88.60;;;;;;4981393;28;20054;-59
2021/11/05 11:55:31;;;;;;;3.42;2.72;;;9.50;88.90;;;;;;4982643;28;20121;-59
2021/11/05 11:58:13;;;;;;;3.92;2.97;;;9.70;85.70;;;;;;4981157;28;20131;-59
2021/11/05 12:00:40;;;;;;;4.47;3.13;;;9.80;84.40;;;;;;4980911;28;20124;-59
2021/11/05 12:03:09;;;;;;;3.80;2.72;;;10.00;85.00;;;;;;4980909;28;20051;-59
2021/11/05 12:05:44;;;;;;;3.20;2.60;;;10.10;82.00;;;;;;4982280;28;20111;-59
2021/11/05 12:08:18;;;;;;;2.97;2.28;;;10.20;81.60;;;;;;4980892;28;20165;-58
2021/11/05 12:11:03;;;;;;;4.07;2.10;;;10.30;82.30;;;;;;4981413;28;20101;-59
2021/11/05 12:13:33;;;;;;;4.03;2.42;;;10.50;80.10;;;;;;4980070;28;20160;-59
2021/11/05 12:16:09;;;;;;;3.83;1.95;;;10.80;78.50;;;;;;4971910;28;20159;-59
2021/11/05 12:18:55;;;;;;;2.38;1.98;;;11.00;76.70;;;;;;4976347;28;20563;-59
2021/11/05 12:21:22;;;;;;;2.35;1.77;;;11.10;74.90;;;;;;4979850;28;20077;-58
2021/11/05 12:24:19;;;;;;;3.03;1.80;;;11.30;74.00;;;;;;4996135;28;20131;-59
2021/11/05 12:26:46;;;;;;;2.75;1.30;;;11.50;72.20;;;;;;4970633;28;20077;-57
2021/11/05 12:29:34;;;;;;;2.53;1.50;;;11.70;68.40;;;;;;4980554;28;20577;-58
2021/11/05 12:32:20;;;;;;;2.35;1.75;;;11.60;71.40;;;;;;4970638;28;20114;-58
2021/11/05 12:34:49;;;;;;;2.47;1.50;;;11.90;70.50;;;;;;4981016;28;20058;-59
2021/11/05 12:37:35;;;;;;;1.90;1.65;;;12.00;68.10;;;;;;4980702;28;20081;-59
2021/11/05 12:40:33;;;;;;;1.77;1.35;;;12.00;67.60;;;;;;4979817;28;20082;-59
2021/11/05 12:43:06;;;;;;;2.03;1.73;;;12.10;68.20;;;;;;4981067;28;20500;-59
2021/11/05 12:45:53;;;;;;;3.67;1.98;;;11.90;70.00;;;;;;4981297;28;20329;-58
2021/11/05 12:48:46;;;;;;;2.15;1.40;;;11.80;70.40;;;;;;4980079;28;20654;-59
2021/11/05 12:51:14;;;;;;;2.03;1.30;;;12.00;68.80;;;;;;4957052;28;20157;-59
2021/11/05 12:53:43;;;;;;;1.88;1.20;;;12.10;69.80;;;;;;4971985;28;20526;-59
2021/11/05 12:56:20;;;;;;;1.88;1.48;;;12.20;67.90;;;;;;4978760;28;20442;-59
2021/11/05 12:58:47;;;;;;;2.85;1.40;;;12.20;67.30;;;;;;4977636;28;20129;-59
2021/11/05 13:01:18;;;;;;;1.83;1.40;;;12.30;67.10;;;;;;4980543;28;20129;-59
2021/11/05 13:03:45;;;;;;;2.40;1.70;;;12.40;68.20;;;;;;4980203;28;20124;-59
2021/11/05 13:06:12;;;;;;;1.63;1.20;;;12.50;67.40;;;;;;4980180;28;20142;-56